Lusaka, Zambia

6:36 PM CAT on December 04, 2016 (GMT +0200)
Sunningdale | | Change Station

Elev 4252 ft 15.42 °S, 28.33 °E | Updated 47 minutes ago

Clear
Clear
82.9 °F
Feels Like 83 °F
N
0.0
Wind Variable Wind from North
Gusts 0.0 mph

Today
High -- | Low -- °F
--% Chance of Precip.
Yesterday
High -- | Low -- °F
Precip. -- in
Pressure 30.01 in
Visibility 6.2 miles
Clouds Scattered Clouds 6000 ft
Heat Index 83 °F
Dew Point 58 °F
Humidity 43%
Rainfall 0.00 in
Snow Depth Not available.
5:26 AM 6:26 PM
Waxing Crescent, 23% visible
METAR FLKK 041600Z 14004KT 9999 SCT060TCU 29/14 Q1016
Pressure 30.01 in
Visibility 6.2 miles
Clouds Scattered Clouds 6000 ft
Heat Index 83 °F
Dew Point 58 °F
Humidity 43%
Rainfall 0.00 in
Snow Depth Not available.
5:26 AM 6:26 PM
Waxing Crescent, 23% visible
METAR FLKK 041600Z 14004KT 9999 SCT060TCU 29/14 Q1016

10-Day Weather Forecast

No radar image for this location.
×

Almanac

Astronomy

Dec. 04, 2016 Rise Set
Actual Time
Civil Twilight
Nautical Twilight
Astronomical Twilight
Moon
Length of Visible Light
Length of Day
Tomorrow will be .
, % of the Moon is Illuminated

Today's Extremes

Country Highs Country Lows

Community

WunderPhotos

Upload Photos

1,955,622 photos uploaded!

WunderBlog® & News

Nearby

Air Quality

  Air Quality AQ Index Pollutant
Not available.

Snow Depth

Station Depth Elevation

Earthquake Activity

City Distance Mag. Time & Date
Minimum magnitude displayed is 2.5.

Coastal Water Temperatures

Place Temperature

Stations

Nearby Weather Stations

Station Location Temp. Windchill Dew Point Humidity Wind Precip. Elev Updated Type